createdAt,value
2022-07-29T00:01:19.612Z,48.01
2022-07-29T00:03:49.873Z,47.87
2022-07-29T00:06:18.283Z,47.89
2022-07-29T00:08:46.393Z,47.82
2022-07-29T00:11:14.809Z,48.11
2022-07-29T00:13:45.393Z,47.94
2022-07-29T00:16:24.480Z,48.19
2022-07-29T00:18:52.341Z,48.14
2022-07-29T00:21:21.609Z,48.32
2022-07-29T00:23:49.539Z,48.44
2022-07-29T00:26:17.491Z,48.34
2022-07-29T00:28:45.301Z,48.77
2022-07-29T00:31:16.262Z,48.73
2022-07-29T00:33:44.346Z,48.97
2022-07-29T00:36:18.586Z,48.66
2022-07-29T00:38:47.075Z,48.73
2022-07-29T00:41:15.486Z,48.73
2022-07-29T00:43:44.126Z,49.14
2022-07-29T00:46:13.905Z,49.38
2022-07-29T00:48:42.756Z,49.55
2022-07-29T00:51:16.562Z,49.96
2022-07-29T00:53:45.091Z,50.48
2022-07-29T00:56:17.254Z,51.27
2022-07-29T00:58:48.697Z,52.06
2022-07-29T01:01:16.704Z,53.39
2022-07-29T01:03:44.647Z,53.91
2022-07-29T01:06:17.458Z,54.07
2022-07-29T01:08:49.135Z,54.31
2022-07-29T01:11:21.282Z,54.04
2022-07-29T01:13:49.750Z,53.79
2022-07-29T01:16:28.962Z,53.90
2022-07-29T01:19:22.950Z,53.96
2022-07-29T01:22:00.919Z,54.35
2022-07-29T01:25:25.588Z,54.63
2022-07-29T01:28:15.793Z,54.87
2022-07-29T01:30:49.427Z,54.98
2022-07-29T01:33:43.920Z,54.97
2022-07-29T01:36:18.758Z,55.16
2022-07-29T01:39:00.356Z,55.57
2022-07-29T01:41:33.636Z,55.68
2022-07-29T01:44:08.900Z,55.46
2022-07-29T01:46:41.397Z,55.56
2022-07-29T01:49:28.267Z,55.78
2022-07-29T01:52:14.338Z,56.04
2022-07-29T01:54:57.045Z,56.05
2022-07-29T01:57:32.836Z,56.30
2022-07-29T02:00:03.061Z,56.71
2022-07-29T02:02:45.328Z,57.39
2022-07-29T02:05:21.362Z,57.82
2022-07-29T02:07:51.404Z,57.77
2022-07-29T02:10:26.005Z,57.77
2022-07-29T02:12:58.526Z,57.80
2022-07-29T02:15:30.282Z,57.81
2022-07-29T02:18:16.040Z,58.48
2022-07-29T02:20:50.230Z,58.92
2022-07-29T02:23:22.798Z,59.42
2022-07-29T02:25:59.720Z,60.14
2022-07-29T02:28:32.290Z,60.34
2022-07-29T02:31:03.732Z,60.05
2022-07-29T02:33:33.912Z,60.36
2022-07-29T02:36:04.158Z,60.58
2022-07-29T02:38:52.711Z,60.56
2022-07-29T02:41:45.312Z,60.27
2022-07-29T02:44:31.286Z,60.44
2022-07-29T02:47:41.453Z,61.14
2022-07-29T02:50:22.661Z,61.09
2022-07-29T02:53:04.297Z,60.99
2022-07-29T02:56:00.826Z,61.37
2022-07-29T02:58:39.730Z,61.84
2022-07-29T03:01:24.180Z,61.87
2022-07-29T03:03:54.969Z,61.68
2022-07-29T03:06:38.604Z,61.22
2022-07-29T03:09:15.241Z,61.40
2022-07-29T03:11:55.522Z,61.21
2022-07-29T03:14:24.715Z,61.32
2022-07-29T03:16:57.843Z,60.98
2022-07-29T03:19:27.441Z,61.26
2022-07-29T03:21:58.922Z,61.18
2022-07-29T03:24:34.931Z,61.23
2022-07-29T03:27:05.349Z,61.35
2022-07-29T03:29:34.729Z,61.18
2022-07-29T03:32:30.056Z,61.17
2022-07-29T03:34:57.678Z,61.48
2022-07-29T03:37:25.367Z,61.35
2022-07-29T03:39:56.970Z,61.84
2022-07-29T03:42:34.049Z,62.47
2022-07-29T03:45:08.197Z,62.59
2022-07-29T03:47:50.927Z,62.54
2022-07-29T03:50:21.907Z,63.02
2022-07-29T03:52:50.340Z,63.01
2022-07-29T03:55:18.290Z,62.84
2022-07-29T03:57:48.650Z,63.39
2022-07-29T04:00:17.238Z,63.65
2022-07-29T04:02:49.265Z,63.87
2022-07-29T04:05:18.696Z,63.56
2022-07-29T04:07:50.649Z,63.45
2022-07-29T04:10:26.916Z,63.27
2022-07-29T04:13:01.623Z,63.62
2022-07-29T04:15:31.217Z,63.75
2022-07-29T04:17:59.910Z,63.23
2022-07-29T04:20:28.517Z,62.97
2022-07-29T04:22:56.350Z,62.87
2022-07-29T04:25:24.175Z,63.10
2022-07-29T04:28:04.572Z,63.09
2022-07-29T04:30:42.326Z,62.67
2022-07-29T04:33:11.295Z,61.63
2022-07-29T04:35:49.750Z,61.97
2022-07-29T04:38:20.002Z,61.74
2022-07-29T04:40:47.775Z,61.46
2022-07-29T04:43:22.746Z,61.41
2022-07-29T04:45:52.419Z,61.68
2022-07-29T04:48:24.029Z,61.85
2022-07-29T04:50:56.442Z,62.05
2022-07-29T04:53:24.082Z,62.38
2022-07-29T04:55:51.629Z,62.05
2022-07-29T04:58:20.108Z,62.03
2022-07-29T05:00:47.870Z,61.89
2022-07-29T05:03:15.742Z,62.03
2022-07-29T05:05:43.681Z,62.03
2022-07-29T05:08:19.232Z,62.29
2022-07-29T05:10:47.556Z,62.32
2022-07-29T05:13:18.027Z,62.23
2022-07-29T05:15:46.004Z,62.10
2022-07-29T05:18:16.728Z,61.75
2022-07-29T05:20:44.282Z,61.15
2022-07-29T05:23:16.529Z,60.94
2022-07-29T05:25:45.000Z,60.78
2022-07-29T05:28:16.242Z,60.72
2022-07-29T05:30:45.578Z,60.72
2022-07-29T05:33:35.515Z,61.13
2022-07-29T05:36:08.369Z,61.24
2022-07-29T05:38:38.242Z,61.65
2022-07-29T05:41:06.635Z,62.05
2022-07-29T05:43:34.746Z,62.55
2022-07-29T05:46:02.806Z,62.60
2022-07-29T05:48:31.090Z,61.96
2022-07-29T05:50:58.769Z,61.98
2022-07-29T05:53:26.651Z,62.10
2022-07-29T05:55:54.497Z,62.63
2022-07-29T05:58:22.185Z,62.03
2022-07-29T06:00:50.084Z,62.77
2022-07-29T06:03:17.663Z,61.68
2022-07-29T06:05:45.569Z,61.66
2022-07-29T06:08:14.637Z,60.62
2022-07-29T06:10:42.535Z,60.29
2022-07-29T06:13:20.972Z,59.27
2022-07-29T06:15:48.689Z,55.90
2022-07-29T06:18:16.504Z,57.07
2022-07-29T06:20:44.434Z,54.24
2022-07-29T06:23:13.745Z,52.54
2022-07-29T06:25:42.733Z,54.19
2022-07-29T06:28:17.920Z,54.91
2022-07-29T06:30:45.624Z,56.18
2022-07-29T06:33:22.770Z,58.56
2022-07-29T06:35:55.042Z,59.25
2022-07-29T06:38:33.791Z,60.04
2022-07-29T06:41:03.041Z,60.41
2022-07-29T06:43:55.295Z,59.93
2022-07-29T06:46:26.391Z,59.67
2022-07-29T06:48:54.565Z,59.61
2022-07-29T06:51:23.936Z,59.54
2022-07-29T06:53:59.466Z,59.24
2022-07-29T06:56:42.760Z,58.73
2022-07-29T06:59:15.470Z,58.40
2022-07-29T07:01:44.652Z,58.29
2022-07-29T07:04:15.558Z,57.85
2022-07-29T07:06:43.979Z,58.28
2022-07-29T07:09:16.051Z,59.71
2022-07-29T07:11:43.731Z,59.72
2022-07-29T07:14:14.178Z,55.16
2022-07-29T07:16:42.847Z,49.25
2022-07-29T07:19:14.080Z,47.30
2022-07-29T07:21:44.545Z,48.14
2022-07-29T07:24:15.034Z,47.62
2022-07-29T07:26:46.271Z,44.79
2022-07-29T07:29:16.947Z,43.32
2022-07-29T07:31:45.145Z,43.90
2022-07-29T07:34:14.387Z,40.71
2022-07-29T07:36:42.860Z,41.58
2022-07-29T07:39:11.819Z,44.71
2022-07-29T07:41:41.173Z,47.06
2022-07-29T07:44:12.903Z,46.39
2022-07-29T07:46:43.520Z,45.90
2022-07-29T07:49:15.936Z,46.81
2022-07-29T07:51:43.723Z,48.12
2022-07-29T07:54:20.813Z,49.82
2022-07-29T07:56:53.287Z,49.16
2022-07-29T07:59:21.438Z,45.16
2022-07-29T08:01:56.316Z,43.87
2022-07-29T08:04:28.662Z,42.63
2022-07-29T08:06:57.901Z,42.79
2022-07-29T08:09:29.766Z,43.85
2022-07-29T08:12:00.470Z,45.62
2022-07-29T08:14:28.237Z,45.93
2022-07-29T08:16:55.970Z,45.96
2022-07-29T08:19:23.612Z,46.33
2022-07-29T08:21:54.660Z,46.99
2022-07-29T08:24:42.700Z,46.33
2022-07-29T08:27:41.773Z,41.63
2022-07-29T08:30:05.559Z,43.26
2022-07-29T08:32:52.543Z,44.74
2022-07-29T08:35:23.035Z,46.64
2022-07-29T08:37:50.878Z,47.06
2022-07-29T08:40:20.306Z,48.05
2022-07-29T08:42:58.649Z,48.88
2022-07-29T08:45:28.832Z,49.26
2022-07-29T08:47:57.830Z,49.81
2022-07-29T08:50:25.591Z,49.81
2022-07-29T08:52:57.922Z,50.46
2022-07-29T08:55:28.048Z,51.10
2022-07-29T08:57:57.588Z,51.42
2022-07-29T09:00:27.429Z,51.37
2022-07-29T09:03:00.431Z,51.14
2022-07-29T09:05:29.111Z,50.27
2022-07-29T09:07:57.523Z,49.38
2022-07-29T09:10:25.360Z,49.44
2022-07-29T09:12:53.495Z,49.48
2022-07-29T09:15:21.195Z,50.51
2022-07-29T09:17:50.774Z,51.60
2022-07-29T09:20:22.860Z,50.93
2022-07-29T09:22:54.675Z,50.59
2022-07-29T09:25:37.096Z,49.18
2022-07-29T09:28:17.747Z,49.73
2022-07-29T09:30:55.455Z,49.69
2022-07-29T09:33:25.287Z,50.09
2022-07-29T09:36:12.526Z,49.34
2022-07-29T09:38:43.753Z,48.57
2022-07-29T09:41:16.049Z,47.51
2022-07-29T09:43:59.260Z,46.68
2022-07-29T09:46:27.425Z,47.75
2022-07-29T09:49:14.181Z,48.09
2022-07-29T09:51:42.661Z,48.15
2022-07-29T09:54:27.714Z,47.68
2022-07-29T09:56:57.430Z,47.74
2022-07-29T09:59:27.559Z,48.27
2022-07-29T10:01:55.739Z,48.21
2022-07-29T10:04:23.491Z,48.32
2022-07-29T10:07:04.836Z,46.91
2022-07-29T10:09:33.752Z,46.53
2022-07-29T10:12:06.899Z,45.64
2022-07-29T10:14:36.384Z,44.02
2022-07-29T10:17:06.966Z,41.98
2022-07-29T10:19:37.075Z,39.08
2022-07-29T10:22:08.438Z,37.56
2022-07-29T10:24:38.346Z,37.44
2022-07-29T10:27:19.112Z,36.87
2022-07-29T10:29:46.877Z,35.50
2022-07-29T10:32:32.533Z,36.29
2022-07-29T10:35:20.437Z,36.28
2022-07-29T10:37:48.657Z,36.40
2022-07-29T10:40:50.432Z,37.76
2022-07-29T10:43:29.940Z,36.85
2022-07-29T10:46:01.962Z,36.30
2022-07-29T10:48:30.179Z,37.17
2022-07-29T10:51:06.992Z,36.40
2022-07-29T10:53:54.757Z,35.39
2022-07-29T10:56:30.423Z,35.70
2022-07-29T10:59:21.730Z,36.13
2022-07-29T11:01:53.386Z,36.54
2022-07-29T11:04:46.986Z,38.30
2022-07-29T11:07:17.478Z,38.13
2022-07-29T11:09:46.553Z,37.61
2022-07-29T11:12:39.858Z,37.83
2022-07-29T11:15:20.299Z,36.63
2022-07-29T11:17:59.408Z,37.26
2022-07-29T11:20:49.693Z,36.39
2022-07-29T11:23:37.544Z,36.33
2022-07-29T11:26:14.938Z,35.48
2022-07-29T11:28:53.093Z,36.11
2022-07-29T11:31:38.215Z,35.34
2022-07-29T11:34:29.636Z,35.45
2022-07-29T11:37:15.539Z,35.68
2022-07-29T11:39:48.690Z,35.99
2022-07-29T11:45:43.336Z,35.74
2022-07-29T11:48:29.972Z,35.24
2022-07-29T11:51:01.257Z,35.07
2022-07-29T11:53:33.039Z,35.03
2022-07-29T11:56:03.402Z,35.81
2022-07-29T11:58:32.797Z,36.10
2022-07-29T12:01:04.790Z,36.13
2022-07-29T12:03:35.962Z,36.65
2022-07-29T12:06:17.425Z,37.54
2022-07-29T12:08:46.304Z,38.80
2022-07-29T12:11:23.525Z,37.55
2022-07-29T12:13:56.576Z,37.92
2022-07-29T12:16:37.921Z,36.82
2022-07-29T12:19:07.124Z,36.53
2022-07-29T12:21:54.056Z,36.65
2022-07-29T12:24:27.679Z,36.59
2022-07-29T12:26:59.998Z,37.54
2022-07-29T12:29:33.989Z,38.45
2022-07-29T12:32:04.467Z,37.96
2022-07-29T12:34:36.287Z,37.69
2022-07-29T12:37:04.459Z,37.77
2022-07-29T12:39:32.434Z,37.84
2022-07-29T12:42:04.601Z,37.17
2022-07-29T12:44:49.546Z,36.39
2022-07-29T12:47:22.194Z,35.66
2022-07-29T12:49:52.228Z,35.44
2022-07-29T12:52:35.702Z,35.97
2022-07-29T12:55:04.915Z,36.19
2022-07-29T12:57:33.775Z,36.38
2022-07-29T13:00:13.646Z,36.85
2022-07-29T13:02:44.491Z,36.36
2022-07-29T13:05:16.055Z,35.80
2022-07-29T13:07:55.710Z,35.83
2022-07-29T13:10:26.321Z,34.70
2022-07-29T13:13:13.698Z,33.21
2022-07-29T13:15:48.552Z,36.04
2022-07-29T13:18:43.443Z,36.83
2022-07-29T13:21:18.734Z,35.78
2022-07-29T13:23:47.189Z,35.50
2022-07-29T13:26:17.229Z,34.93
2022-07-29T13:28:45.002Z,33.98
2022-07-29T13:31:23.115Z,34.03
2022-07-29T13:33:51.180Z,35.33
2022-07-29T13:36:21.504Z,36.19
2022-07-29T13:38:49.226Z,36.71
2022-07-29T13:41:17.751Z,36.92
2022-07-29T13:43:45.813Z,36.67
2022-07-29T13:46:17.904Z,36.42
2022-07-29T13:48:46.047Z,35.74
2022-07-29T13:51:14.106Z,36.06
2022-07-29T13:53:44.751Z,35.99
2022-07-29T13:56:17.540Z,37.17
2022-07-29T13:58:45.130Z,37.46
2022-07-29T14:01:16.237Z,37.32
2022-07-29T14:03:45.794Z,36.59
2022-07-29T14:06:18.947Z,35.71
2022-07-29T14:08:50.066Z,35.87
2022-07-29T14:11:17.697Z,35.70
2022-07-29T14:13:45.443Z,35.36
2022-07-29T14:16:16.356Z,35.75
2022-07-29T14:18:44.736Z,36.12
2022-07-29T14:21:15.749Z,35.91
2022-07-29T14:23:43.667Z,36.45
2022-07-29T14:26:16.052Z,37.66
2022-07-29T14:28:50.212Z,37.29
2022-07-29T14:31:18.119Z,38.12
2022-07-29T14:33:49.330Z,37.26
2022-07-29T14:36:18.968Z,37.08
2022-07-29T14:38:46.757Z,37.43
2022-07-29T14:41:15.641Z,36.17
2022-07-29T14:43:45.101Z,36.59
2022-07-29T14:46:14.390Z,37.26
2022-07-29T14:48:42.772Z,36.82
2022-07-29T14:51:13.884Z,36.74
2022-07-29T14:53:44.954Z,37.51
2022-07-29T14:56:35.997Z,37.95
2022-07-29T14:59:05.577Z,37.93
2022-07-29T15:01:33.309Z,38.42
2022-07-29T15:04:01.846Z,38.94
2022-07-29T15:06:29.427Z,38.92
2022-07-29T15:08:57.343Z,37.91
2022-07-29T15:11:25.058Z,37.94
2022-07-29T15:13:52.757Z,38.74
2022-07-29T15:16:20.657Z,38.96
2022-07-29T15:18:48.411Z,39.36
2022-07-29T15:21:16.752Z,39.42
2022-07-29T15:23:50.309Z,39.89
2022-07-29T15:26:18.909Z,39.75
2022-07-29T15:28:46.868Z,40.02
2022-07-29T15:31:15.165Z,39.65
2022-07-29T15:33:44.019Z,39.79
2022-07-29T15:36:35.639Z,39.45
2022-07-29T15:39:02.733Z,39.26
2022-07-29T15:41:30.687Z,38.77
2022-07-29T15:43:59.132Z,38.75
2022-07-29T15:46:45.575Z,38.33
2022-07-29T15:49:16.588Z,38.65
2022-07-29T15:51:44.690Z,38.80
2022-07-29T15:54:17.700Z,39.16
2022-07-29T15:56:45.496Z,38.86
2022-07-29T15:59:22.408Z,38.76
2022-07-29T16:01:53.670Z,38.49
2022-07-29T16:04:21.908Z,38.65
2022-07-29T16:06:50.299Z,38.31
2022-07-29T16:09:19.013Z,37.83
2022-07-29T16:11:50.874Z,37.84
2022-07-29T16:14:18.990Z,38.11
2022-07-29T16:16:47.368Z,38.16
2022-07-29T16:19:15.754Z,38.54
2022-07-29T16:21:47.171Z,38.47
2022-07-29T16:24:15.171Z,38.57
2022-07-29T16:26:43.629Z,38.96
2022-07-29T16:29:14.273Z,38.25
2022-07-29T16:31:44.318Z,38.69
2022-07-29T16:34:16.524Z,38.74
2022-07-29T16:36:57.714Z,38.19
2022-07-29T16:39:25.454Z,38.20
2022-07-29T16:41:55.900Z,38.04
2022-07-29T16:44:25.870Z,37.76
2022-07-29T16:46:55.885Z,37.99
2022-07-29T16:49:24.227Z,38.35
2022-07-29T16:51:52.261Z,38.59
2022-07-29T16:54:20.088Z,38.41
2022-07-29T16:56:48.347Z,38.17
2022-07-29T16:59:18.928Z,38.53
2022-07-29T17:01:49.230Z,38.75
2022-07-29T17:04:17.373Z,39.08
2022-07-29T17:06:45.075Z,39.97
2022-07-29T17:09:19.503Z,40.56
2022-07-29T17:11:55.138Z,41.26
2022-07-29T17:14:31.112Z,41.48
2022-07-29T17:17:02.179Z,41.64
2022-07-29T17:19:35.522Z,41.34
2022-07-29T17:22:14.317Z,41.36
2022-07-29T17:24:47.769Z,41.59
2022-07-29T17:27:15.767Z,41.58
2022-07-29T17:29:48.800Z,41.85
2022-07-29T17:32:16.732Z,41.91
2022-07-29T17:34:47.269Z,41.58
2022-07-29T17:37:16.985Z,41.68
2022-07-29T17:39:45.082Z,41.66
2022-07-29T17:42:15.375Z,41.69
2022-07-29T17:44:44.861Z,41.77
2022-07-29T17:47:16.749Z,41.82
2022-07-29T17:49:45.715Z,41.71
2022-07-29T17:52:18.497Z,41.46
2022-07-29T17:54:48.650Z,41.32
2022-07-29T17:57:16.322Z,41.47
2022-07-29T17:59:48.418Z,41.74
2022-07-29T18:02:16.217Z,41.83
2022-07-29T18:04:44.499Z,41.83
2022-07-29T18:07:18.689Z,41.96
2022-07-29T18:09:46.657Z,41.85
2022-07-29T18:12:14.972Z,41.56
2022-07-29T18:14:46.776Z,41.44
2022-07-29T18:17:15.624Z,41.57
2022-07-29T18:19:49.267Z,41.47
2022-07-29T18:22:19.178Z,41.67
2022-07-29T18:24:46.852Z,41.76
2022-07-29T18:27:17.977Z,41.83
2022-07-29T18:29:45.747Z,41.75
2022-07-29T18:32:19.156Z,41.50
2022-07-29T18:34:57.382Z,41.60
2022-07-29T18:38:01.058Z,41.22
2022-07-29T18:40:18.518Z,41.03
2022-07-29T18:42:50.037Z,41.05
2022-07-29T18:45:19.430Z,41.36
2022-07-29T18:47:50.571Z,41.91
2022-07-29T18:50:19.655Z,42.20
2022-07-29T18:52:49.414Z,42.70
2022-07-29T18:55:17.613Z,42.22
2022-07-29T18:57:56.344Z,42.08
2022-07-29T19:00:28.305Z,42.69
2022-07-29T19:02:57.095Z,42.77
2022-07-29T19:05:25.591Z,42.98
2022-07-29T19:07:54.830Z,43.42
2022-07-29T19:10:23.499Z,43.88
2022-07-29T19:12:51.291Z,43.53
2022-07-29T19:15:21.475Z,44.01
2022-07-29T19:17:49.799Z,44.51
2022-07-29T19:20:20.141Z,44.61
2022-07-29T19:22:48.289Z,45.17
2022-07-29T19:25:15.954Z,45.42
2022-07-29T19:27:43.668Z,45.55
2022-07-29T19:30:21.698Z,45.80
2022-07-29T19:32:49.857Z,45.99
2022-07-29T19:35:33.188Z,46.26
2022-07-29T19:38:02.173Z,46.67
2022-07-29T19:40:30.542Z,46.73
2022-07-29T19:42:58.623Z,47.12
2022-07-29T19:45:29.190Z,47.34
2022-07-29T19:48:01.253Z,47.54
2022-07-29T19:50:29.848Z,47.71
2022-07-29T19:52:58.465Z,47.86
2022-07-29T19:55:27.920Z,48.14
2022-07-29T19:57:59.395Z,48.18
2022-07-29T20:00:31.973Z,48.49
2022-07-29T20:02:59.791Z,48.52
2022-07-29T20:05:34.440Z,48.82
2022-07-29T20:08:06.312Z,48.87
2022-07-29T20:10:35.521Z,49.25
2022-07-29T20:13:03.713Z,49.58
2022-07-29T20:15:31.485Z,49.77
2022-07-29T20:17:59.323Z,49.71
2022-07-29T20:20:30.037Z,49.96
2022-07-29T20:23:02.585Z,50.19
2022-07-29T20:25:30.950Z,50.21
2022-07-29T20:27:58.730Z,50.50
2022-07-29T20:30:27.323Z,50.48
2022-07-29T20:32:55.373Z,50.74
2022-07-29T20:35:23.653Z,50.74
2022-07-29T20:37:58.278Z,50.96
2022-07-29T20:40:35.854Z,51.53
2022-07-29T20:43:03.696Z,51.77
2022-07-29T20:45:31.295Z,51.92
2022-07-29T20:48:02.027Z,52.09
2022-07-29T20:50:30.756Z,52.12
2022-07-29T20:52:59.670Z,52.10
2022-07-29T20:55:32.252Z,52.10
2022-07-29T20:58:00.146Z,52.26
2022-07-29T21:00:28.645Z,52.40
2022-07-29T21:02:56.417Z,52.40
2022-07-29T21:05:24.939Z,52.08
2022-07-29T21:07:58.580Z,52.22
2022-07-29T21:10:28.389Z,52.08
2022-07-29T21:12:56.562Z,51.79
2022-07-29T21:15:24.968Z,51.93
2022-07-29T21:18:00.589Z,51.76
2022-07-29T21:20:29.328Z,51.54
2022-07-29T21:23:04.703Z,51.66
2022-07-29T21:25:34.488Z,51.75
2022-07-29T21:28:22.023Z,51.62
2022-07-29T21:30:50.860Z,51.56
2022-07-29T21:33:18.786Z,51.76
2022-07-29T21:36:15.081Z,51.76
2022-07-29T21:38:35.650Z,51.61
2022-07-29T21:41:05.409Z,51.65
2022-07-29T21:43:34.219Z,51.67
2022-07-29T21:46:02.327Z,51.89
2022-07-29T21:48:30.540Z,52.04
2022-07-29T21:50:58.938Z,52.02
2022-07-29T21:53:28.482Z,52.32
2022-07-29T21:55:56.311Z,52.18
2022-07-29T21:58:24.955Z,52.51
2022-07-29T22:00:54.181Z,52.57
2022-07-29T22:03:22.149Z,52.70
2022-07-29T22:05:50.535Z,52.55
2022-07-29T22:08:21.345Z,52.79
2022-07-29T22:10:52.517Z,52.93
2022-07-29T22:13:20.547Z,53.33
2022-07-29T22:15:48.917Z,53.38
2022-07-29T22:18:21.126Z,53.43
2022-07-29T22:20:51.352Z,53.80
2022-07-29T22:23:19.263Z,53.94
2022-07-29T22:25:50.506Z,54.15
2022-07-29T22:28:18.249Z,54.29
2022-07-29T22:30:46.176Z,54.39
2022-07-29T22:33:17.598Z,54.83
2022-07-29T22:35:56.000Z,54.67
2022-07-29T22:38:24.401Z,54.78
2022-07-29T22:40:52.554Z,55.16
2022-07-29T22:43:20.671Z,55.29
2022-07-29T22:45:49.110Z,55.47
2022-07-29T22:48:16.840Z,55.77
2022-07-29T22:50:44.689Z,55.78
2022-07-29T22:53:15.367Z,55.88
2022-07-29T22:55:43.146Z,55.79
2022-07-29T22:58:13.367Z,56.31
2022-07-29T23:00:42.398Z,56.43
2022-07-29T23:03:09.968Z,56.89
2022-07-29T23:05:42.608Z,56.43
2022-07-29T23:08:16.366Z,56.28
2022-07-29T23:10:44.627Z,56.46
2022-07-29T23:13:16.354Z,56.65
2022-07-29T23:15:43.935Z,56.78
2022-07-29T23:18:14.984Z,56.88
2022-07-29T23:20:44.176Z,57.29
2022-07-29T23:23:14.649Z,57.34
2022-07-29T23:25:42.979Z,57.34
2022-07-29T23:28:13.200Z,57.40
2022-07-29T23:30:44.476Z,57.45
2022-07-29T23:33:15.396Z,57.45
2022-07-29T23:35:43.188Z,57.47
2022-07-29T23:38:11.591Z,57.80
2022-07-29T23:40:43.031Z,58.19
2022-07-29T23:43:15.033Z,58.63
2022-07-29T23:45:45.185Z,58.65
2022-07-29T23:48:21.539Z,58.76
2022-07-29T23:50:55.473Z,58.60
2022-07-29T23:53:24.337Z,58.62
2022-07-29T23:55:52.816Z,58.50
2022-07-29T23:58:20.496Z,58.37
